Flight Track Log - Related Links

Times and Time Zones

All times are in EDT time to prevent confusion due to time zone crossing. See the N749SS flight status page for this flight to view local times or setup timezone preferences in your user account.

Time Position Orientation Groundspeed Altitude Reporting Facility
EDT Latitude Longitude Course Direction KTS MPH feet Rate Location/Type
Fri 04:21:46 PM 34.1017 -119.7308 123° Southeast 308 354 13,200  Level Los Angeles Center
Fri 04:22:48 PM 34.0533 -119.6394 123° Southeast 324 373 16,900 2,806 Climbing Los Angeles Center
Fri 04:23:50 PM 34.0022 -119.5425 122° Southeast 339 390 19,000 1,597 Climbing Los Angeles Center
Fri 04:24:52 PM 33.9358 -119.4264 125° Southeast 412 474 20,200 2,226 Climbing Los Angeles Center
Fri 04:25:54 PM 33.8594 -119.2836 123° Southeast 421 484 23,600 3,097 Climbing Los Angeles Center
Fri 04:26:56 PM 33.7947 -119.1706 125° Southeast 412 474 26,600 2,855 Climbing Los Angeles Center
Fri 04:27:58 PM 33.7486 -119.0489 114° Southeast 416 479 29,500 2,613 Climbing Los Angeles Center
Fri 04:29:00 PM 33.7442 -118.9125 92° East 410 472 32,000 2,274 Climbing Los Angeles Center
Fri 04:30:02 PM 33.7408 -118.7753 92° East 413 475 34,200 2,226 Climbing Los Angeles Center
Fri 04:31:04 PM 33.7353 -118.6058 92° East 421 484 36,600 1,824 Climbing Los Angeles Center
Fri 04:32:07 PM 33.7308 -118.4619 92° East 427 491 38,000 1,152 Climbing Los Angeles Center
Fri 04:33:09 PM 33.7247 -118.3250 93° East 436 502 39,000 726 Climbing Los Angeles Center
Fri 04:34:11 PM 33.7181 -118.1319 92° East 489 563 39,500 774 Climbing Los Angeles Center
Fri 04:35:13 PM 33.7131 -117.9803 92° East 476 548 40,600 726 Climbing Los Angeles Center
Fri 04:36:15 PM 33.7128 -117.8328 90° East 453 521 41,000 387 Climbing Los Angeles Center
Fri 04:38:00 PM 33.7061 -117.6039 92° East  Level FlightAware Approximate
Fri 04:45:00 PM 33.6640 -116.6890 96° East  Level FlightAware Approximate
Fri 04:46:00 PM 33.6528 -116.5589 96° East  Level FlightAware Approximate
Fri 04:47:00 PM 33.6415 -116.4288 96° East  Level FlightAware Approximate
Fri 04:48:00 PM 33.6300 -116.2987 96° East  Level FlightAware Approximate
Fri 04:49:00 PM 33.6184 -116.1687 96° East  Level FlightAware Approximate
Fri 04:50:00 PM 33.6149 -116.0381 91° East  Level FlightAware Approximate
Fri 04:51:00 PM 33.6128 -115.9074 91° East  Level FlightAware Approximate
Fri 04:52:00 PM 33.6105 -115.7767 91° East  Level FlightAware Approximate
Fri 04:53:00 PM 33.6081 -115.6460 91° East  Level FlightAware Approximate
Fri 04:54:00 PM 33.6056 -115.5153 91° East  Level FlightAware Approximate
Fri 04:55:00 PM 33.6029 -115.3846 91° East  Level FlightAware Approximate
Fri 04:56:00 PM 33.6001 -115.2539 91° East  Level FlightAware Approximate
Fri 04:57:00 PM 33.5960 -115.1233 92° East  Level FlightAware Approximate
Fri 04:58:00 PM 33.5917 -114.9927 92° East  Level FlightAware Approximate
Fri 04:59:00 PM 33.5872 -114.8621 92° East  Level FlightAware Approximate
Fri 05:00:00 PM 33.5798 -114.7319 103° East  Level FlightAware Approximate
Fri 05:01:00 PM 33.5545 -114.6048 103° East  Level FlightAware Approximate
Fri 05:02:00 PM 33.5291 -114.4778 103° East  Level FlightAware Approximate
Fri 05:03:00 PM 33.5035 -114.3509 104° East  Level FlightAware Approximate
Fri 05:04:00 PM 33.4795 -114.2235 103° East  Level FlightAware Approximate
Fri 05:05:00 PM 33.4556 -114.0962 103° East  Level FlightAware Approximate
Fri 05:06:00 PM 33.4333 -113.9694 90° East  Level FlightAware Approximate
Fri 05:07:00 PM 33.4076 -113.8427 105° East  Level FlightAware Approximate
Fri 05:08:00 PM 33.3796 -113.7167 105° East  Level FlightAware Approximate
Fri 05:09:00 PM 33.3516 -113.5907 105° East  Level FlightAware Approximate
Fri 05:10:00 PM 33.3333 -113.4630 90° East  Level FlightAware Approximate
Fri 05:11:00 PM 33.3137 -113.3350 103° East  Level FlightAware Approximate
Fri 05:12:00 PM 33.2856 -113.2092 107° East  Level FlightAware Approximate
Fri 05:13:00 PM 33.2667 -113.0823 90° East  Level FlightAware Approximate
Fri 05:14:00 PM 33.2667 -112.9521 90° East  Level FlightAware Approximate
Fri 05:15:00 PM 33.2667 -112.8219 90° East  Level FlightAware Approximate
Fri 05:16:00 PM 33.2813 -112.6937 77° East  Level FlightAware Approximate
Fri 05:17:00 PM 33.2834 -112.5637 90° East  Level FlightAware Approximate
Fri 05:18:00 PM 33.2834 -112.4335 90° East  Level FlightAware Approximate
Fri 05:19:00 PM 33.2834 -112.3032 90° East  Level FlightAware Approximate
Fri 05:20:00 PM 33.2833 -112.1730 90° East  Level FlightAware Approximate
Fri 05:21:00 PM 33.2833 -112.0427 90° East  Level FlightAware Approximate
Fri 05:22:00 PM 33.2833 -111.9125 90° East  Level FlightAware Approximate
Fri 05:23:00 PM 33.3664 -111.9000 North  Level FlightAware Approximate
Fri 05:24:00 PM 33.4753 -111.9000 North  Level FlightAware Approximate
Fri 05:25:00 PM 33.5842 -111.9000 North  Level FlightAware Approximate
Fri 05:26:00 PM 33.6167 -111.9000 North  Level FlightAware Approximate
Fri 05:27:00 PM 33.6341 -112.0291 North  Level Estimated
Fri 05:28:00 PM 33.6167 -111.9000 North  Level FlightAware Approximate
Fri 05:29:00 PM 33.6341 -112.0291 North  Level Estimated
Fri 05:30:00 PM 33.6167 -111.9000 North  Level FlightAware Approximate
Fri 05:31:00 PM 33.6341 -112.0291 North  Level Estimated
Fri 05:32:00 PM 33.6167 -111.9000 North  Level FlightAware Approximate
Fri 05:33:00 PM 33.6341 -112.0291 North  Level Estimated
Fri 05:34:00 PM 33.6167 -111.9000 North  Level FlightAware Approximate
Fri 05:35:00 PM 33.6341 -112.0291 North  Level Estimated
Fri 05:36:00 PM 33.6167 -111.9000 North  Level FlightAware Approximate
Fri 05:37:00 PM 33.6341 -112.0291 North  Level Estimated
Fri 05:38:00 PM 33.6167 -111.9000 North  Level FlightAware Approximate
Fri 05:39:00 PM 33.6341 -112.0291 North  Level Estimated

Login

Don't have an account? Register now (free) for customized features, flight alerts, and more!